Time;durP1;ratioP1;P1;durP2;ratioP2;P2;SDS_P1;SDS_P2;PMS_P1;PMS_P2;Temp;Humidity;BMP_temperature;BMP_pressure;BME280_temperature;BME280_humidity;BME280_pressure;Samples;Min_cycle;Max_cycle;Signal;HPM_P1;HPM_P2
2022/01/28 00:01:46;;;;;;;38.90;14.60;;;;;;;-5.28;67.85;95277.16;5131196;27;20031;-74
2022/01/28 00:04:14;;;;;;;21.15;9.18;;;;;;;-5.35;67.22;95263.72;5128969;27;20077;-73
2022/01/28 00:06:39;;;;;;;20.15;9.13;;;;;;;-5.40;67.45;95266.34;5114372;27;20467;-74
2022/01/28 00:09:04;;;;;;;20.13;9.32;;;;;;;-5.43;67.84;95261.31;5111383;28;20028;-74
2022/01/28 00:11:30;;;;;;;22.35;9.95;;;;;;;-5.35;68.43;95258.66;5093404;28;20036;-74
2022/01/28 00:14:09;;;;;;;22.95;11.25;;;;;;;-5.41;68.63;95239.31;5113220;27;20088;-74
2022/01/28 00:19:50;;;;;;;23.17;10.60;;;;;;;-5.33;69.20;95238.38;5128860;27;20039;-74
2022/01/28 00:38:33;;;;;;;17.75;8.77;;;;;;;-5.12;67.46;95243.16;5121989;28;20033;-74
2022/01/28 00:40:58;;;;;;;50.08;19.88;;;;;;;-5.27;67.54;95230.69;5130218;28;20068;-74
2022/01/28 00:43:24;;;;;;;85.43;34.03;;;;;;;-5.31;68.24;95247.63;5130336;27;20024;-74
2022/01/28 00:45:49;;;;;;;45.53;18.67;;;;;;;-5.32;67.51;95237.50;5113320;28;20386;-74
2022/01/28 00:48:15;;;;;;;29.80;12.50;;;;;;;-5.44;67.36;95234.31;5111439;28;20043;-74
2022/01/28 00:50:42;;;;;;;23.85;10.18;;;;;;;-5.47;66.96;95220.84;5132012;27;20054;-74
2022/01/28 00:53:08;;;;;;;22.65;9.65;;;;;;;-5.51;67.57;95226.84;5134462;27;20108;-74
2022/01/28 00:55:34;;;;;;;19.83;9.23;;;;;;;-5.60;68.25;95217.66;5117274;27;20070;-74
2022/01/28 00:57:59;;;;;;;19.50;8.88;;;;;;;-5.58;68.38;95210.88;5096797;28;20394;-73
2022/01/28 01:00:25;;;;;;;21.60;9.35;;;;;;;-5.46;66.88;95225.06;5126178;27;20470;-73
2022/01/28 01:02:50;;;;;;;19.30;9.27;;;;;;;-5.55;66.86;95220.13;5134237;27;20032;-74
2022/01/28 01:05:16;;;;;;;18.83;8.82;;;;;;;-5.82;66.26;95190.97;5134251;27;20034;-74
2022/01/28 01:07:41;;;;;;;21.98;9.02;;;;;;;-5.76;66.52;95206.09;5135101;27;20038;-74
2022/01/28 01:10:07;;;;;;;14.88;8.35;;;;;;;-5.80;66.34;95205.25;5116885;27;20028;-74
2022/01/28 01:12:40;;;;;;;15.43;8.45;;;;;;;-5.90;67.13;95202.03;5096684;28;20481;-74
2022/01/28 01:15:06;;;;;;;18.40;8.93;;;;;;;-5.95;67.16;95205.50;5119467;27;20114;-74
2022/01/28 01:18:39;;;;;;;17.33;7.82;;;;;;;-5.95;67.16;95208.03;5116998;27;20035;-73
2022/01/28 01:23:05;;;;;;;16.33;7.85;;;;;;;-5.96;67.56;95186.09;5113654;28;20061;-74
2022/01/28 01:25:30;;;;;;;18.20;8.20;;;;;;;-6.08;69.17;95177.00;5098376;28;20054;-74
2022/01/28 01:27:57;;;;;;;19.20;8.80;;;;;;;-6.03;69.35;95187.88;5115550;27;20031;-74
2022/01/28 01:30:28;;;;;;;18.15;7.88;;;;;;;-6.01;68.50;95183.66;5135069;27;20031;-74
2022/01/28 01:32:54;;;;;;;24.93;13.37;;;;;;;-6.03;68.64;95179.47;5133797;27;20120;-74
2022/01/28 01:35:19;;;;;;;42.85;18.05;;;;;;;-6.15;68.47;95168.66;5133689;27;20280;-74
2022/01/28 01:37:44;;;;;;;32.83;15.25;;;;;;;-6.13;70.04;95166.09;5121412;27;20063;-74
2022/01/28 01:40:11;;;;;;;22.77;11.75;;;;;;;-6.14;68.92;95151.78;5115342;27;20028;-74
2022/01/28 01:53:08;;;;;;;19.10;9.88;;;;;;;-6.45;68.11;95154.69;5113306;28;20039;-74
2022/01/28 01:55:34;;;;;;;18.92;8.45;;;;;;;-6.52;67.47;95137.91;5112849;28;20417;-74
2022/01/28 01:57:59;;;;;;;19.90;8.13;;;;;;;-6.59;68.73;95143.91;5112695;28;20485;-74
2022/01/28 02:00:25;;;;;;;18.98;8.23;;;;;;;-6.63;69.10;95144.75;5123489;27;20524;-74
2022/01/28 02:02:50;;;;;;;18.67;8.27;;;;;;;-6.65;68.46;95147.34;5131230;27;20032;-74
2022/01/28 02:05:16;;;;;;;17.08;8.40;;;;;;;-6.64;68.06;95138.06;5134434;27;20059;-73
2022/01/28 02:07:43;;;;;;;19.45;8.43;;;;;;;-6.68;67.97;95154.13;5115868;27;20050;-73
2022/01/28 02:10:09;;;;;;;17.17;8.90;;;;;;;-6.77;68.08;95153.34;5112590;27;20035;-74
2022/01/28 02:12:50;;;;;;;16.60;8.70;;;;;;;-6.79;68.14;95161.81;5095394;28;20038;-74
2022/01/28 02:15:16;;;;;;;15.32;7.78;;;;;;;-6.82;68.22;95150.03;5112248;28;20420;-74
2022/01/28 02:17:42;;;;;;;21.98;9.13;;;;;;;-6.87;68.46;95151.78;5112266;28;20069;-74
2022/01/28 02:20:09;;;;;;;19.08;7.47;;;;;;;-6.92;68.93;95145.91;5112362;28;20036;-74
2022/01/28 02:22:35;;;;;;;18.17;8.35;;;;;;;-6.85;69.64;95129.88;5114912;27;20453;-74
2022/01/28 02:25:00;;;;;;;20.27;7.80;;;;;;;-6.87;68.94;95125.69;5133974;27;20106;-74
2022/01/28 02:27:26;;;;;;;17.75;8.07;;;;;;;-6.79;69.74;95134.84;5115602;27;20031;-74
2022/01/28 02:29:52;;;;;;;21.20;8.02;;;;;;;-6.78;69.22;95126.41;5132545;27;20068;-74
2022/01/28 02:32:17;;;;;;;21.35;8.38;;;;;;;-6.82;70.15;95129.00;5099513;28;20088;-74
2022/01/28 02:34:43;;;;;;;19.25;9.15;;;;;;;-6.79;70.66;95121.38;5111828;28;20482;-74
2022/01/28 02:37:08;;;;;;;19.08;7.65;;;;;;;-6.71;69.83;95111.16;5112107;28;20028;-73
2022/01/28 02:39:34;;;;;;;18.42;8.20;;;;;;;-6.69;69.55;95115.34;5113110;28;20034;-74
2022/01/28 02:42:14;;;;;;;20.25;9.57;;;;;;;-6.70;69.81;95112.84;5112212;27;20035;-74
2022/01/28 02:47:12;;;;;;;22.38;8.55;;;;;;;-6.78;69.08;95118.81;5133866;27;20027;-74
2022/01/28 02:49:38;;;;;;;17.13;8.35;;;;;;;-6.71;68.63;95116.22;5132054;27;20023;-74
2022/01/28 02:52:04;;;;;;;16.42;7.45;;;;;;;-6.76;69.24;95121.34;5119653;27;20093;-74
2022/01/28 02:54:32;;;;;;;25.67;8.38;;;;;;;-6.84;69.13;95120.59;5111562;28;20401;-74
2022/01/28 02:57:02;;;;;;;18.77;8.90;;;;;;;-6.87;69.21;95116.41;5112736;28;20408;-74
2022/01/28 02:59:27;;;;;;;17.83;8.18;;;;;;;-6.93;69.43;95121.53;5112912;28;20028;-74
2022/01/28 03:01:53;;;;;;;17.52;8.35;;;;;;;-6.87;69.63;95118.09;5113549;27;20384;-74
2022/01/28 03:07:04;;;;;;;21.13;8.43;;;;;;;-6.95;70.13;95113.13;5117454;27;20054;-74
2022/01/28 03:09:47;;;;;;;22.35;9.15;;;;;;;-6.97;70.67;95107.22;5111139;28;20031;-74
2022/01/28 03:12:16;;;;;;;24.45;8.15;;;;;;;-6.85;70.47;95104.59;5124291;27;20517;-74
2022/01/28 03:17:49;;;;;;;20.40;8.00;;;;;;;-6.89;69.78;95108.00;5132998;27;20031;-74
2022/01/28 03:20:30;;;;;;;22.35;8.43;;;;;;;-6.84;70.67;95098.69;5132893;27;20102;-73
2022/01/28 03:22:50;;;;;;;20.50;8.68;;;;;;;-6.88;72.02;95064.22;5111111;28;20040;-74
2022/01/28 03:25:16;;;;;;;18.63;9.30;;;;;;;-6.64;73.17;95090.88;5112540;28;20024;-74
2022/01/28 03:30:07;;;;;;;26.02;10.82;;;;;;;-6.48;72.03;95088.16;5121202;27;20024;-74
2022/01/28 03:32:32;;;;;;;18.20;8.60;;;;;;;-6.47;71.51;95080.53;5114408;27;20038;-74
2022/01/28 03:34:58;;;;;;;18.27;8.80;;;;;;;-6.48;71.45;95083.09;5114146;27;20048;-74
2022/01/28 03:37:24;;;;;;;23.95;9.35;;;;;;;-6.52;71.71;95083.16;5114112;27;20471;-73
2022/01/28 03:39:49;;;;;;;19.20;8.75;;;;;;;-6.37;71.73;95087.16;5130545;27;20047;-74
2022/01/28 03:42:14;;;;;;;17.80;9.07;;;;;;;-6.35;70.92;95070.28;5132482;27;20031;-74
2022/01/28 03:44:40;;;;;;;18.90;9.25;;;;;;;-6.36;70.45;95063.53;5132314;27;20027;-74
2022/01/28 03:47:05;;;;;;;21.35;9.93;;;;;;;-6.42;70.08;95048.47;5131200;27;20043;-74
2022/01/28 03:49:31;;;;;;;21.83;10.02;;;;;;;-6.47;70.91;95054.44;5119125;27;20031;-74
2022/01/28 03:51:56;;;;;;;24.48;10.82;;;;;;;-6.48;71.47;95063.72;5093490;28;20035;-74
2022/01/28 03:54:22;;;;;;;23.05;11.30;;;;;;;-6.45;71.09;95063.66;5111599;28;20024;-74
2022/01/28 03:56:47;;;;;;;22.27;11.40;;;;;;;-6.45;70.38;95045.97;5110470;28;20035;-74
2022/01/28 03:59:12;;;;;;;23.63;11.27;;;;;;;-6.45;71.04;95043.44;5110510;28;20034;-74
2022/01/28 04:01:40;;;;;;;22.00;10.38;;;;;;;-6.42;71.58;95038.34;5094217;28;20451;-74
2022/01/28 04:05:22;;;;;;;18.63;9.13;;;;;;;-6.40;72.15;95046.75;5093632;28;20038;-74
2022/01/28 04:12:21;;;;;;;24.55;8.32;;;;;;;-6.50;70.21;95034.25;5130975;27;20160;-74
2022/01/28 04:15:04;;;;;;;18.95;8.60;;;;;;;-6.56;71.81;95041.06;5097057;28;20035;-74
2022/01/28 04:17:29;;;;;;;25.85;9.63;;;;;;;-6.48;72.46;95035.06;5130939;27;20031;-74
2022/01/28 04:19:55;;;;;;;23.00;9.95;;;;;;;-6.50;72.99;95024.13;5111636;27;20031;-73
2022/01/28 04:22:20;;;;;;;27.35;10.10;;;;;;;-6.45;72.73;95023.22;5130765;27;20031;-73
2022/01/28 04:24:46;;;;;;;24.90;9.73;;;;;;;-6.27;72.34;95046.56;5112957;28;20571;-74
2022/01/28 04:27:11;;;;;;;22.20;9.63;;;;;;;-6.23;72.94;95033.03;5131389;27;20019;-73
2022/01/28 04:29:37;;;;;;;25.05;10.00;;;;;;;-6.23;72.33;95030.50;5114046;27;20444;-73
2022/01/28 04:32:03;;;;;;;22.15;10.32;;;;;;;-6.36;70.88;95042.47;5111137;28;20027;-74
2022/01/28 04:34:29;;;;;;;25.20;10.02;;;;;;;-6.26;70.20;95056.69;5111227;28;20019;-75
2022/01/28 04:37:18;;;;;;;24.05;9.88;;;;;;;-6.27;70.44;95051.63;5094990;28;20028;-73
2022/01/28 04:39:55;;;;;;;19.88;9.02;;;;;;;-6.36;70.33;95072.81;5126161;28;20027;-76
2022/01/28 04:45:18;;;;;;;20.20;8.82;;;;;;;-6.45;70.13;95056.09;5117003;28;20042;-75
2022/01/28 04:50:50;;;;;;;20.60;7.70;;;;;;;-6.48;70.50;95056.13;5113383;28;20043;-75
2022/01/28 04:56:14;;;;;;;18.33;7.57;;;;;;;-6.49;69.58;95072.16;5127761;27;20043;-73
2022/01/28 05:04:06;;;;;;;19.05;8.73;;;;;;;-6.64;68.51;95073.16;5151345;27;20227;-74
2022/01/28 05:27:18;;;;;;;15.70;7.55;;;;;;;-6.34;73.40;95055.94;5109670;28;20455;-73
2022/01/28 05:29:44;;;;;;;15.93;7.68;;;;;;;-6.26;73.46;95068.50;5110784;28;20114;-74
2022/01/28 05:32:09;;;;;;;22.40;10.57;;;;;;;-6.25;73.44;95062.56;5108916;28;20054;-73
2022/01/28 05:34:35;;;;;;;22.92;10.20;;;;;;;-6.20;72.99;95051.53;5110318;28;20043;-73
2022/01/28 05:37:00;;;;;;;21.70;8.95;;;;;;;-6.12;73.08;95072.50;5099493;27;20031;-73
2022/01/28 05:39:26;;;;;;;21.85;8.35;;;;;;;-6.10;71.94;95069.91;5132273;27;20027;-74
2022/01/28 05:41:51;;;;;;;15.13;7.68;;;;;;;-6.09;72.04;95074.16;5115673;27;20031;-73
2022/01/28 05:44:18;;;;;;;16.83;8.07;;;;;;;-6.09;71.83;95071.63;5133279;27;20074;-73
2022/01/28 05:46:44;;;;;;;20.17;8.55;;;;;;;-6.18;71.54;95074.28;5134694;27;20028;-73
2022/01/28 05:49:10;;;;;;;13.63;6.95;;;;;;;-6.12;70.67;95075.03;5116462;27;20524;-74
2022/01/28 05:51:35;;;;;;;18.85;7.22;;;;;;;-6.13;70.66;95080.94;5116043;27;20052;-73
2022/01/28 05:54:01;;;;;;;19.25;8.35;;;;;;;-6.21;70.54;95079.34;5131195;27;20061;-73
2022/01/28 05:56:26;;;;;;;14.82;7.35;;;;;;;-6.27;69.84;95072.69;5135019;27;20525;-74
2022/01/28 05:58:52;;;;;;;20.50;8.13;;;;;;;-6.21;70.09;95071.75;5132661;27;20031;-73
2022/01/28 06:01:18;;;;;;;17.92;7.50;;;;;;;-6.24;70.87;95066.75;5132972;27;20031;-73
2022/01/28 06:03:44;;;;;;;18.92;8.82;;;;;;;-6.19;70.95;95075.13;5115939;27;20035;-74
2022/01/28 06:06:18;;;;;;;13.00;6.20;;;;;;;-6.21;69.77;95084.41;5133283;27;20033;-74
2022/01/28 06:08:44;;;;;;;13.80;6.95;;;;;;;-6.19;68.47;95082.72;5133183;27;20032;-74
2022/01/28 06:11:09;;;;;;;15.20;7.13;;;;;;;-6.24;68.85;95076.88;5130897;27;20077;-73
2022/01/28 06:13:35;;;;;;;14.57;6.50;;;;;;;-6.28;67.96;95075.25;5131004;27;20505;-73
2022/01/28 06:16:00;;;;;;;12.18;5.97;;;;;;;-6.38;68.60;95072.84;5134355;27;20100;-73
2022/01/28 06:18:25;;;;;;;18.05;6.88;;;;;;;-6.36;70.50;95077.88;5113769;27;20091;-73
2022/01/28 06:20:51;;;;;;;21.08;8.20;;;;;;;-6.27;71.49;95085.34;5134331;27;20038;-73
2022/01/28 06:23:17;;;;;;;15.75;7.22;;;;;;;-6.21;70.38;95081.88;5130865;27;20031;-73
2022/01/28 06:25:44;;;;;;;16.35;6.93;;;;;;;-6.19;68.39;95095.34;5129257;27;20019;-74
2022/01/28 06:28:09;;;;;;;19.63;9.65;;;;;;;-6.24;69.25;95102.16;5112062;27;20028;-74
2022/01/28 06:30:34;;;;;;;21.95;9.90;;;;;;;-6.29;69.77;95107.31;5113071;27;20031;-73
2022/01/28 06:33:00;;;;;;;18.63;9.20;;;;;;;-6.27;69.09;95102.19;5112069;28;20024;-74
2022/01/28 06:35:25;;;;;;;18.35;9.02;;;;;;;-6.30;69.68;95103.91;5113021;27;20042;-73
2022/01/28 06:37:51;;;;;;;27.58;13.18;;;;;;;-6.37;69.92;95093.91;5112029;28;20028;-74
2022/01/28 06:40:16;;;;;;;40.67;18.80;;;;;;;-6.35;70.91;95115.81;5114683;27;20031;-73
2022/01/28 06:42:42;;;;;;;41.78;20.45;;;;;;;-6.22;69.79;95101.28;5132380;27;20067;-73
2022/01/28 06:45:07;;;;;;;20.58;10.38;;;;;;;-6.22;69.64;95101.28;5091921;28;20050;-74
2022/01/28 06:47:35;;;;;;;22.15;8.57;;;;;;;-6.32;70.28;95105.66;5123918;27;20058;-73
2022/01/28 06:50:02;;;;;;;34.25;14.82;;;;;;;-6.31;69.94;95106.47;5110646;28;20035;-73
2022/01/28 06:52:27;;;;;;;34.60;15.93;;;;;;;-6.34;70.12;95109.03;5111691;28;20119;-74
2022/01/28 06:54:53;;;;;;;27.23;12.73;;;;;;;-6.27;70.10;95108.09;5111712;28;20027;-74
2022/01/28 06:57:18;;;;;;;21.50;10.57;;;;;;;-6.25;70.54;95103.03;5123605;27;20040;-73
2022/01/28 06:59:44;;;;;;;19.65;9.48;;;;;;;-6.23;70.73;95106.38;5108733;27;20428;-73
2022/01/28 07:02:10;;;;;;;17.80;8.05;;;;;;;-6.19;71.20;95106.31;5097904;27;20474;-74
2022/01/28 07:04:35;;;;;;;16.80;8.15;;;;;;;-6.16;71.69;95106.25;5133206;27;20495;-74
2022/01/28 07:07:00;;;;;;;18.52;7.85;;;;;;;-6.05;71.00;95117.94;5133227;27;20023;-73
2022/01/28 07:09:26;;;;;;;21.27;8.63;;;;;;;-6.04;70.75;95117.94;5128149;27;20058;-74
2022/01/28 07:11:52;;;;;;;17.90;8.07;;;;;;;-6.01;71.25;95114.50;5126483;27;20130;-74
2022/01/28 07:14:17;;;;;;;25.70;8.90;;;;;;;-5.97;71.62;95127.09;5133756;27;20480;-74
2022/01/28 07:16:43;;;;;;;29.70;10.15;;;;;;;-5.95;71.12;95122.84;5146042;27;20031;-74
2022/01/28 07:19:09;;;;;;;41.63;12.43;;;;;;;-5.91;71.48;95124.44;5106399;28;20035;-73
2022/01/28 07:21:35;;;;;;;29.95;9.93;;;;;;;-5.79;71.23;95130.16;5114881;27;20031;-73
2022/01/28 07:24:00;;;;;;;19.67;9.63;;;;;;;-5.73;70.63;95136.00;5112045;27;20111;-73
2022/01/28 07:26:26;;;;;;;18.50;8.18;;;;;;;-5.85;71.51;95118.44;5128893;27;20035;-73
2022/01/28 07:28:52;;;;;;;22.98;8.98;;;;;;;-5.68;70.83;95133.41;5131447;27;20031;-73
2022/01/28 07:31:18;;;;;;;42.38;13.15;;;;;;;-5.68;71.33;95128.34;5131587;27;20087;-73
2022/01/28 07:33:45;;;;;;;29.42;13.75;;;;;;;-5.69;71.71;95119.06;5130742;27;20028;-73
2022/01/28 07:36:10;;;;;;;30.52;11.07;;;;;;;-5.51;72.00;95125.56;5129404;27;20019;-73
2022/01/28 07:38:36;;;;;;;35.00;14.25;;;;;;;-5.34;72.03;95133.72;5131291;27;20152;-73
2022/01/28 07:41:01;;;;;;;37.00;14.85;;;;;;;-5.12;72.42;95139.25;5131378;27;20031;-73
2022/01/28 07:43:27;;;;;;;43.58;18.13;;;;;;;-4.82;71.87;95159.84;5114070;27;20030;-73
2022/01/28 07:45:52;;;;;;;52.38;24.13;;;;;;;-4.73;71.60;95164.78;5128078;27;20397;-73
2022/01/28 07:48:18;;;;;;;57.00;25.58;;;;;;;-4.64;70.90;95151.91;5103626;27;20504;-73
2022/01/28 07:50:43;;;;;;;55.67;26.67;;;;;;;-4.28;69.96;95147.00;5121374;27;20486;-73
2022/01/28 07:53:11;;;;;;;54.00;25.48;;;;;;;-3.86;68.94;95157.16;5117688;27;20517;-73
2022/01/28 07:55:36;;;;;;;38.47;16.85;;;;;;;-3.37;68.45;95148.44;5119100;27;20124;-74
2022/01/28 07:58:02;;;;;;;45.45;18.10;;;;;;;-2.96;66.72;95161.84;5111375;27;20065;-73
2022/01/28 08:00:27;;;;;;;67.68;26.88;;;;;;;-2.60;65.02;95154.97;5111213;27;20390;-74
2022/01/28 08:02:53;;;;;;;56.33;24.88;;;;;;;-2.32;63.44;95165.25;5111548;28;20035;-73
2022/01/28 08:05:18;;;;;;;60.80;27.13;;;;;;;-2.07;62.57;95179.84;5079209;27;20030;-73
2022/01/28 08:07:44;;;;;;;60.70;26.55;;;;;;;-1.96;63.26;95172.75;5119993;27;20027;-73
2022/01/28 08:10:10;;;;;;;62.10;26.45;;;;;;;-1.94;63.14;95162.53;5114685;27;20462;-73
2022/01/28 08:12:46;;;;;;;60.50;25.92;;;;;;;-1.87;62.77;95157.19;5111280;28;20063;-75
2022/01/28 08:15:11;;;;;;;76.38;34.08;;;;;;;-1.77;61.69;95152.69;5078502;27;20039;-73
2022/01/28 08:17:37;;;;;;;65.07;26.67;;;;;;;-1.81;61.36;95133.28;5130715;27;20545;-73
2022/01/28 08:20:02;;;;;;;326.58;117.18;;;;;;;-1.82;61.80;95134.97;5129906;27;20020;-72
2022/01/28 08:22:28;;;;;;;181.93;66.90;;;;;;;-1.76;61.36;95140.78;5123386;27;20522;-74
2022/01/28 08:24:53;;;;;;;53.65;23.13;;;;;;;-1.76;61.28;95120.41;5122935;27;20023;-72
2022/01/28 08:27:19;;;;;;;141.68;55.88;;;;;;;-1.74;60.84;95121.19;5124773;27;20061;-72
2022/01/28 08:29:44;;;;;;;58.50;23.02;;;;;;;-1.95;60.45;95120.97;5111553;28;20035;-72
2022/01/28 08:32:09;;;;;;;45.95;19.98;;;;;;;-1.75;60.31;95124.63;5095099;28;20024;-71
2022/01/28 08:34:35;;;;;;;51.53;22.65;;;;;;;-1.58;60.49;95119.84;5128329;27;20062;-72
2022/01/28 08:37:03;;;;;;;50.47;19.60;;;;;;;-1.32;60.13;95118.22;5128197;28;20408;-71
2022/01/28 08:39:30;;;;;;;57.35;24.15;;;;;;;-1.23;60.14;95123.84;5111476;28;20075;-72
2022/01/28 08:41:55;;;;;;;59.05;24.05;;;;;;;-1.22;60.13;95114.50;5127061;28;20031;-71
2022/01/28 08:44:21;;;;;;;68.03;28.10;;;;;;;-1.21;59.58;95109.31;5122216;27;20038;-71
2022/01/28 08:46:46;;;;;;;67.80;28.98;;;;;;;-1.11;59.92;95104.78;5122674;28;20043;-73
2022/01/28 08:49:12;;;;;;;63.05;27.60;;;;;;;-1.07;59.20;95113.97;5129882;27;20035;-73
2022/01/28 08:51:37;;;;;;;34.22;15.05;;;;;;;-0.95;58.45;95103.38;5118949;27;20563;-73
2022/01/28 08:54:03;;;;;;;41.13;19.85;;;;;;;-0.94;58.54;95114.41;5116465;27;20028;-73
2022/01/28 08:56:28;;;;;;;40.42;14.25;;;;;;;-0.92;58.50;95118.59;5118104;27;20046;-72
2022/01/28 08:58:53;;;;;;;49.63;21.23;;;;;;;-0.85;58.52;95123.47;5109361;28;20036;-72
2022/01/28 09:01:19;;;;;;;59.92;25.30;;;;;;;-0.84;58.33;95125.13;5111357;28;20081;-72
2022/01/28 09:03:45;;;;;;;65.95;27.25;;;;;;;-0.78;58.26;95130.88;5109208;28;20042;-72
2022/01/28 09:06:11;;;;;;;62.20;26.25;;;;;;;-0.67;57.91;95143.25;5109822;28;20482;-73
2022/01/28 09:08:37;;;;;;;54.65;23.73;;;;;;;-0.70;57.79;95146.78;5093037;28;20039;-72
2022/01/28 09:11:32;;;;;;;72.85;29.55;;;;;;;-0.66;57.94;95142.38;5109618;28;20035;-72
2022/01/28 09:13:57;;;;;;;52.90;22.45;;;;;;;-0.69;57.81;95142.50;5126821;27;20031;-72
2022/01/28 09:16:23;;;;;;;51.72;20.88;;;;;;;-0.64;57.09;95135.53;5113856;28;20562;-72
2022/01/28 09:18:48;;;;;;;45.00;20.77;;;;;;;-0.56;57.15;95140.34;5134318;27;20030;-72
2022/01/28 09:21:14;;;;;;;52.53;22.83;;;;;;;-0.53;57.22;95130.88;5156301;27;20080;-72
2022/01/28 09:23:39;;;;;;;52.20;20.08;;;;;;;-0.35;56.71;95133.69;5154707;27;20042;-73
2022/01/28 09:26:05;;;;;;;52.72;23.00;;;;;;;-0.35;56.24;95131.13;5136999;27;20413;-72
2022/01/28 09:28:30;;;;;;;52.67;21.98;;;;;;;-0.36;55.79;95137.94;5119971;27;20024;-72
2022/01/28 09:30:57;;;;;;;64.40;28.73;;;;;;;-0.28;57.97;95132.56;5133844;27;20042;-72
2022/01/28 09:33:22;;;;;;;64.50;24.60;;;;;;;-0.29;56.06;95133.44;5117116;27;20470;-72
2022/01/28 09:35:48;;;;;;;75.78;31.10;;;;;;;-0.26;56.19;95138.44;5135111;27;20060;-71
2022/01/28 09:38:14;;;;;;;65.75;24.83;;;;;;;-0.25;55.66;95140.97;5134922;27;20080;-72
2022/01/28 09:40:39;;;;;;;68.93;27.85;;;;;;;-0.26;55.65;95144.38;5133575;27;20027;-74
2022/01/28 09:43:07;;;;;;;61.78;27.15;;;;;;;-0.27;55.98;95142.72;5116403;27;20032;-74
2022/01/28 09:45:32;;;;;;;57.47;26.08;;;;;;;-0.21;56.27;95145.97;5124149;27;20023;-73
2022/01/28 09:47:59;;;;;;;56.38;23.05;;;;;;;-0.19;56.05;95149.31;5116643;27;20039;-74
2022/01/28 09:50:26;;;;;;;51.35;24.17;;;;;;;-0.20;55.87;95153.53;5112624;28;20108;-74
2022/01/28 09:52:51;;;;;;;57.55;21.60;;;;;;;-0.19;55.48;95145.00;5095990;28;20032;-73
2022/01/28 09:55:18;;;;;;;61.47;26.17;;;;;;;-0.17;56.84;95148.31;5112830;28;20054;-73
2022/01/28 09:57:45;;;;;;;56.00;24.00;;;;;;;-0.13;55.70;95147.34;5095731;28;20501;-74
2022/01/28 10:00:11;;;;;;;81.22;33.20;;;;;;;-0.10;56.99;95142.13;5112647;28;20478;-74
2022/01/28 10:03:10;;;;;;;85.63;32.97;;;;;;;0.03;56.48;95139.97;5112929;28;20034;-74
2022/01/28 10:05:42;;;;;;;69.75;29.30;;;;;;;0.06;55.77;95146.69;5090110;28;20493;-74
2022/01/28 10:08:14;;;;;;;72.00;28.60;;;;;;;0.10;55.62;95135.47;5113841;28;20026;-73
2022/01/28 10:11:07;;;;;;;83.57;34.88;;;;;;;0.17;55.79;95126.69;5113900;28;20036;-73
2022/01/28 10:13:46;;;;;;;69.22;30.48;;;;;;;0.26;55.21;95136.56;5113724;28;20038;-74
2022/01/28 10:16:29;;;;;;;75.55;28.77;;;;;;;0.28;55.88;95136.47;5097052;28;20485;-74
2022/01/28 10:18:54;;;;;;;73.75;30.88;;;;;;;0.24;55.66;95145.16;5096315;28;20104;-74
2022/01/28 10:21:39;;;;;;;94.47;38.00;;;;;;;0.27;55.59;95142.50;5112171;28;20059;-74
2022/01/28 10:24:13;;;;;;;69.70;29.45;;;;;;;0.39;56.02;95148.00;5112732;28;20043;-76
2022/01/28 10:27:06;;;;;;;51.92;21.83;;;;;;;0.40;55.90;95147.09;5112720;28;20031;-74
2022/01/28 10:29:36;;;;;;;55.55;22.67;;;;;;;0.51;55.46;95140.75;5112337;28;20062;-74
2022/01/28 10:32:05;;;;;;;66.97;26.50;;;;;;;0.51;55.03;95136.47;5113442;28;20457;-74
2022/01/28 10:34:37;;;;;;;60.75;25.85;;;;;;;0.51;55.11;95150.97;5113595;28;20028;-75
2022/01/28 10:37:16;;;;;;;73.20;27.55;;;;;;;0.47;55.43;95145.13;5112474;28;20080;-75
2022/01/28 10:39:57;;;;;;;80.05;30.60;;;;;;;0.56;55.74;95132.00;5112068;28;20051;-75
2022/01/28 10:42:25;;;;;;;90.90;33.80;;;;;;;0.66;55.84;95143.53;5111918;28;20557;-74
2022/01/28 10:45:10;;;;;;;78.50;30.13;;;;;;;0.69;55.70;95139.19;5113082;28;20024;-74
2022/01/28 10:47:38;;;;;;;64.13;26.80;;;;;;;0.71;55.69;95138.25;5111884;28;20028;-74
2022/01/28 10:50:16;;;;;;;57.25;21.17;;;;;;;0.74;54.69;95147.53;5111539;28;20525;-74
2022/01/28 10:52:42;;;;;;;50.53;20.67;;;;;;;0.63;54.78;95130.88;5111524;28;20028;-73
2022/01/28 10:55:07;;;;;;;47.08;20.30;;;;;;;0.65;56.20;95146.16;5112930;27;20034;-74
2022/01/28 10:57:33;;;;;;;54.17;21.98;;;;;;;0.67;55.14;95146.94;5094673;28;20032;-74
2022/01/28 10:59:58;;;;;;;60.30;21.42;;;;;;;0.71;55.23;95148.47;5112833;28;20023;-74
2022/01/28 11:02:25;;;;;;;68.80;22.92;;;;;;;0.73;55.01;95144.13;5112836;28;20024;-74
2022/01/28 11:04:51;;;;;;;50.80;22.35;;;;;;;0.73;54.60;95145.88;5111391;28;20554;-74
2022/01/28 11:07:16;;;;;;;35.90;17.42;;;;;;;0.76;53.38;95136.34;5094583;28;20152;-74
2022/01/28 11:09:42;;;;;;;40.33;18.77;;;;;;;0.85;52.83;95133.41;5094333;28;20053;-74
2022/01/28 11:12:07;;;;;;;45.50;20.05;;;;;;;0.92;52.80;95126.34;5111303;28;20543;-74
2022/01/28 11:14:33;;;;;;;49.10;21.52;;;;;;;0.98;52.29;95120.16;5094194;28;20026;-74
2022/01/28 11:16:59;;;;;;;69.60;29.73;;;;;;;0.79;53.42;95131.09;5094260;28;20473;-74
2022/01/28 11:19:25;;;;;;;49.08;21.73;;;;;;;0.74;55.41;95130.44;5094175;28;20497;-74
2022/01/28 11:22:13;;;;;;;60.78;24.90;;;;;;;0.62;54.72;95118.16;5094332;28;20027;-74
2022/01/28 11:24:43;;;;;;;55.85;27.77;;;;;;;0.67;55.63;95123.94;5112291;28;20065;-74
2022/01/28 11:27:20;;;;;;;65.90;28.85;;;;;;;0.63;55.68;95120.63;5111203;28;20581;-74
2022/01/28 11:29:46;;;;;;;69.78;32.67;;;;;;;0.60;56.16;95117.38;5112461;28;20035;-74
2022/01/28 11:32:14;;;;;;;65.72;30.80;;;;;;;0.70;55.61;95100.78;5110939;28;20032;-74
2022/01/28 11:35:03;;;;;;;65.72;28.98;;;;;;;0.81;55.79;95108.03;5093726;28;20031;-74
2022/01/28 11:37:30;;;;;;;64.03;32.35;;;;;;;0.79;55.97;95122.59;5093721;28;20116;-74
2022/01/28 11:40:08;;;;;;;67.75;30.35;;;;;;;0.86;56.56;95112.06;5110752;28;20080;-74
2022/01/28 11:42:34;;;;;;;67.60;31.30;;;;;;;0.97;57.03;95118.47;5093718;28;20035;-74
2022/01/28 11:45:07;;;;;;;64.85;31.70;;;;;;;0.97;56.72;95103.13;5111918;28;20501;-74
2022/01/28 11:47:39;;;;;;;68.13;30.90;;;;;;;1.18;56.41;95119.34;5111897;28;20172;-74
2022/01/28 11:50:12;;;;;;;64.15;31.67;;;;;;;1.15;56.53;95101.53;5111579;28;20085;-74
2022/01/28 11:52:39;;;;;;;64.55;27.08;;;;;;;1.28;55.99;95112.91;5110542;28;20168;-73
2022/01/28 11:55:13;;;;;;;54.35;25.15;;;;;;;1.46;54.42;95113.88;5110442;28;20110;-74
2022/01/28 11:57:42;;;;;;;52.80;24.17;;;;;;;1.52;54.24;95108.50;5110446;28;20643;-74
2022/01/28 12:00:23;;;;;;;51.33;24.02;;;;;;;1.59;54.70;95099.66;5076975;28;20131;-74
2022/01/28 12:02:52;;;;;;;50.57;24.07;;;;;;;1.66;54.80;95106.16;5111686;27;20099;-74
2022/01/28 12:05:44;;;;;;;50.40;23.23;;;;;;;1.85;52.97;95095.13;5110247;28;20031;-74
2022/01/28 12:08:09;;;;;;;;;;;;;;;1.97;53.32;95092.84;5103258;28;20119;-74
2022/01/28 12:10:40;;;;;;;48.78;21.63;;;;;;;2.01;53.18;95091.00;5110374;28;20010;-71
2022/01/28 12:13:11;;;;;;;169.35;61.13;;;;;;;1.96;55.87;95092.91;5078126;28;20509;-74
2022/01/28 12:16:03;;;;;;;94.13;40.88;;;;;;;2.05;56.39;95094.25;5094147;28;20027;-74
2022/01/28 12:18:48;;;;;;;72.43;34.65;;;;;;;2.03;55.45;95084.03;5111483;28;20115;-74
2022/01/28 12:21:26;;;;;;;60.55;27.50;;;;;;;2.08;55.92;95084.66;5111720;28;20535;-74
2022/01/28 12:24:15;;;;;;;59.10;28.73;;;;;;;2.14;55.59;95084.38;5111402;28;20039;-74
2022/01/28 12:27:07;;;;;;;42.40;20.00;;;;;;;2.27;54.66;95079.53;5110347;28;20412;-74
2022/01/28 12:29:43;;;;;;;40.28;19.58;;;;;;;2.29;56.66;95079.47;5094828;28;20301;-73
2022/01/28 12:32:10;;;;;;;45.50;24.08;;;;;;;2.31;56.79;95082.78;5109954;28;20058;-74
2022/01/28 12:34:43;;;;;;;41.85;22.55;;;;;;;2.32;56.50;95081.91;5110065;28;20020;-74
2022/01/28 12:37:09;;;;;;;39.72;18.88;;;;;;;2.35;55.77;95076.63;5093515;28;20467;-71
2022/01/28 12:39:44;;;;;;;42.15;21.55;;;;;;;2.41;56.54;95081.47;5109964;28;20023;-74
2022/01/28 12:42:33;;;;;;;40.83;20.83;;;;;;;2.46;55.90;95075.22;5110152;28;20024;-74
2022/01/28 12:44:57;;;;;;;35.22;18.48;;;;;;;2.41;56.27;95061.78;5109745;28;20138;-74
2022/01/28 12:47:23;;;;;;;31.17;15.98;;;;;;;2.55;55.96;95073.94;5095083;28;20039;-73
2022/01/28 12:49:55;;;;;;;34.63;17.70;;;;;;;2.72;55.53;95062.06;5113797;28;20054;-74
2022/01/28 12:52:21;;;;;;;37.08;19.52;;;;;;;2.74;55.35;95067.97;5114046;28;20092;-74